Time;durP1;ratioP1;P1;durP2;ratioP2;P2;SDS_P1;SDS_P2;PMS_P1;PMS_P2;Temp;Humidity;BMP_temperature;BMP_pressure;BME280_temperature;BME280_humidity;BME280_pressure;Samples;Min_cycle;Max_cycle;Signal;HPM_P1;HPM_P2
2023/11/27 00:02:12;;;;;;;;;;;;;;;25.45;40.46;93830.13;5024301;28;6917;-61
2023/11/27 00:04:58;;;;;;;;;;;;;;;25.46;40.31;93828.13;4971140;28;7318;-61
2023/11/27 00:07:26;;;;;;;;;;;;;;;25.41;39.64;93821.38;4972508;28;7087;-61
2023/11/27 00:10:23;;;;;;;;;;;;;;;25.45;40.41;93830.13;4986356;28;7190;-61
2023/11/27 00:12:48;;;;;;;;;;;;;;;25.44;39.60;93828.66;5013864;28;9582;-61
2023/11/27 00:15:15;;;;;;;;;;;;;;;25.45;40.42;93835.63;5015521;28;7184;-61
2023/11/27 00:17:42;;;;;;;;;;;;;;;25.42;39.82;93825.69;5013169;28;7514;-61
2023/11/27 00:20:09;;;;;;;;;;;;;;;25.45;39.42;93830.13;5014247;28;6995;-61
2023/11/27 00:22:36;;;;;;;;;;;;;;;25.45;40.34;93830.13;5006195;28;8578;-62
2023/11/27 00:25:03;;;;;;;;;;;;;;;25.46;39.53;93826.09;5007915;28;7210;-62
2023/11/27 00:27:29;;;;;;;;;;;;;;;25.46;39.80;93819.84;5006307;28;7000;-62
2023/11/27 00:30:06;;;;;;;;;;;;;;;25.46;39.41;93828.88;5005571;28;7133;-62
2023/11/27 00:32:36;;;;;;;;;;;;;;;25.48;40.02;93826.31;5011933;28;8711;-62
2023/11/27 00:35:02;;;;;;;;;;;;;;;25.48;39.97;93825.56;5013675;28;7267;-62
2023/11/27 00:37:28;;;;;;;;;;;;;;;25.45;39.88;93819.09;5020065;28;7221;-62
2023/11/27 00:39:56;;;;;;;;;;;;;;;25.45;40.29;93816.34;5025636;28;7212;-62
2023/11/27 00:42:22;;;;;;;;;;;;;;;25.43;40.13;93816.13;5075837;28;8840;-62
2023/11/27 00:44:48;;;;;;;;;;;;;;;25.41;40.06;93811.13;5047198;28;7136;-62
2023/11/27 00:47:20;;;;;;;;;;;;;;;25.42;40.64;93807.13;5070451;28;7067;-62
2023/11/27 00:50:03;;;;;;;;;;;;;;;25.44;39.83;93806.63;5054361;28;7213;-62
2023/11/27 00:52:30;;;;;;;;;;;;;;;25.45;40.39;93804.63;5065857;28;7216;-62
2023/11/27 00:54:56;;;;;;;;;;;;;;;25.42;39.99;93800.91;5067441;28;7315;-62
2023/11/27 00:57:22;;;;;;;;;;;;;;;25.42;40.07;93795.38;5071283;28;8064;-62
2023/11/27 01:00:10;;;;;;;;;;;;;;;25.47;40.15;93791.78;5066676;28;8900;-62
2023/11/27 01:03:07;;;;;;;;;;;;;;;25.46;40.16;93784.81;5049846;28;7093;-62
2023/11/27 01:05:34;;;;;;;;;;;;;;;25.47;40.06;93780.78;5029549;28;6990;-62
2023/11/27 01:08:05;;;;;;;;;;;;;;;25.43;40.14;93763.81;5015886;28;7248;-62
2023/11/27 01:11:11;;;;;;;;;;;;;;;25.48;40.13;93785.03;5021505;28;7579;-62
2023/11/27 01:13:40;;;;;;;;;;;;;;;25.46;39.21;93784.81;5032814;28;6990;-62
2023/11/27 01:16:53;;;;;;;;;;;;;;;25.46;39.61;93790.31;5042797;28;7411;-62
2023/11/27 01:19:50;;;;;;;;;;;;;;;25.44;39.45;93787.34;4931896;28;7431;-62
2023/11/27 01:22:26;;;;;;;;;;;;;;;25.45;40.49;93779.84;4936001;28;7537;-62
2023/11/27 01:24:56;;;;;;;;;;;;;;;25.44;39.86;93776.34;4943923;28;9020;-62
2023/11/27 01:27:22;;;;;;;;;;;;;;;25.45;40.48;93782.59;4936474;28;7236;-62
2023/11/27 01:29:48;;;;;;;;;;;;;;;25.42;40.01;93781.63;4941295;28;7501;-62
2023/11/27 01:32:17;;;;;;;;;;;;;;;25.42;39.71;93779.59;4938909;28;9338;-60
2023/11/27 01:34:44;;;;;;;;;;;;;;;25.42;39.77;93770.59;4926953;28;9396;-61
2023/11/27 01:37:11;;;;;;;;;;;;;;;25.42;40.21;93765.09;4937024;28;6987;-61
2023/11/27 01:39:39;;;;;;;;;;;;;;;25.42;39.66;93762.34;4943851;28;9189;-61
2023/11/27 01:42:05;;;;;;;;;;;;;;;25.47;39.99;93758.75;4952566;28;7384;-61
2023/11/27 01:45:01;;;;;;;;;;;;;;;25.47;40.13;93758.03;4978094;28;6979;-61
2023/11/27 01:51:20;;;;;;;;;;;;;;;25.46;40.00;93745.50;4935753;29;7360;-61
2023/11/27 01:54:02;;;;;;;;;;;;;;;25.45;40.05;93747.53;4924821;29;7233;-61
2023/11/27 01:57:07;;;;;;;;;;;;;;;25.47;40.21;93742.22;4937331;28;6993;-61
2023/11/27 01:59:47;;;;;;;;;;;;;;;25.46;39.58;93740.75;4929041;28;7307;-61
2023/11/27 02:02:45;;;;;;;;;;;;;;;25.47;39.27;93728.47;4929036;28;7222;-61
2023/11/27 02:05:21;;;;;;;;;;;;;;;25.43;39.68;93723.28;4882542;29;8755;-61
2023/11/27 02:07:49;;;;;;;;;;;;;;;25.46;39.79;93717.97;4897386;29;7347;-61
2023/11/27 02:13:36;;;;;;;;;;;;;;;25.47;39.62;93706.44;4897575;29;7399;-61
2023/11/27 02:16:11;;;;;;;;;;;;;;;25.48;39.30;93707.19;4889741;29;8129;-61
2023/11/27 02:18:55;;;;;;;;;;;;;;;25.45;40.00;93700.72;4892237;29;9167;-61
2023/11/27 02:21:52;;;;;;;;;;;;;;;25.48;39.32;93691.41;4901085;29;6994;-61
2023/11/27 02:24:28;;;;;;;;;;;;;;;25.47;39.73;93681.66;4865352;29;7471;-61
2023/11/27 02:26:58;;;;;;;;;;;;;;;25.44;40.23;93671.72;4846320;29;7253;-60
2023/11/27 02:29:55;;;;;;;;;;;;;;;25.45;40.05;93670.44;4885004;29;7228;-61
2023/11/27 02:32:23;;;;;;;;;;;;;;;25.45;40.09;93667.69;4893449;29;7372;-61
2023/11/27 02:35:18;;;;;;;;;;;;;;;25.45;39.51;93664.94;4910644;29;7274;-60
2023/11/27 02:37:53;;;;;;;;;;;;;;;25.45;39.29;93667.69;4882879;29;7275;-61
2023/11/27 02:40:43;;;;;;;;;;;;;;;25.46;40.11;93660.16;4877255;29;6947;-61
2023/11/27 02:47:05;;;;;;;;;;;;;;;25.45;40.13;93659.41;4865707;29;7247;-62
2023/11/27 02:49:59;;;;;;;;;;;;;;;25.46;39.26;93655.41;4860164;29;9689;-62
2023/11/27 02:52:38;;;;;;;;;;;;;;;25.45;40.15;93645.66;4860101;29;8274;-62
2023/11/27 02:55:05;;;;;;;;;;;;;;;25.45;39.35;93642.91;4843577;29;9406;-62
2023/11/27 02:57:42;;;;;;;;;;;;;;;25.42;40.01;93641.94;4847018;29;6981;-62
2023/11/27 03:00:18;;;;;;;;;;;;;;;25.45;39.77;93636.66;4892860;28;6998;-61
2023/11/27 03:02:44;;;;;;;;;;;;;;;25.45;40.05;93640.16;4926817;28;6917;-62
2023/11/27 03:05:43;;;;;;;;;;;;;;;25.45;39.85;93645.66;4934904;29;7170;-61
2023/11/27 03:08:28;;;;;;;;;;;;;;;25.45;39.27;93640.16;4939880;28;8881;-61
2023/11/27 03:11:11;;;;;;;;;;;;;;;25.45;39.98;93639.44;4943363;28;7243;-62
2023/11/27 03:13:56;;;;;;;;;;;;;;;25.46;40.09;93647.16;4963833;28;7549;-62
2023/11/27 03:17:00;;;;;;;;;;;;;;;25.43;39.55;93645.44;5017451;28;7319;-62
2023/11/27 03:19:38;;;;;;;;;;;;;;;25.40;39.48;93632.72;5046730;28;8790;-62
2023/11/27 03:22:07;;;;;;;;;;;;;;;25.40;39.89;93635.47;5072923;28;9028;-62
2023/11/27 03:24:42;;;;;;;;;;;;;;;25.38;39.56;93624.25;5055599;28;7354;-62
2023/11/27 03:27:38;;;;;;;;;;;;;;;25.39;39.54;93620.22;5071513;28;7470;-62
2023/11/27 03:30:06;;;;;;;;;;;;;;;25.37;39.69;93625.50;4989822;28;9066;-62
2023/11/27 03:33:01;;;;;;;;;;;;;;;25.40;39.67;93618.94;4991722;28;7159;-62
2023/11/27 03:35:36;;;;;;;;;;;;;;;25.39;39.73;93620.22;4983036;28;9389;-62
2023/11/27 03:38:37;;;;;;;;;;;;;;;25.39;39.20;93606.44;4976270;28;9535;-61
2023/11/27 03:45:05;;;;;;;;;;;;;;;25.38;39.94;93613.94;4985969;28;8634;-61
2023/11/27 03:47:41;;;;;;;;;;;;;;;25.36;40.12;93604.75;4991345;28;7343;-62
2023/11/27 03:50:28;;;;;;;;;;;;;;;25.40;39.21;93605.91;4998839;28;7245;-62
2023/11/27 03:52:54;;;;;;;;;;;;;;;25.42;40.22;93610.94;4991601;28;7245;-64
2023/11/27 03:55:33;;;;;;;;;;;;;;;25.40;39.20;93588.66;4992249;28;7388;-63
2023/11/27 03:58:13;;;;;;;;;;;;;;;25.43;39.94;93590.38;4975649;28;7208;-63
2023/11/27 04:00:50;;;;;;;;;;;;;;;25.43;39.75;93593.88;4976751;28;7026;-63
2023/11/27 04:03:30;;;;;;;;;;;;;;;25.44;39.51;93591.88;4990481;28;7328;-63
2023/11/27 04:06:26;;;;;;;;;;;;;;;25.45;39.82;93592.63;5012611;28;7525;-64
2023/11/27 04:09:20;;;;;;;;;;;;;;;25.45;39.36;93595.38;5016757;28;7445;-63
2023/11/27 04:12:00;;;;;;;;;;;;;;;25.43;39.20;93587.63;5002449;28;6990;-63
2023/11/27 04:14:28;;;;;;;;;;;;;;;25.43;39.15;93590.38;4976389;28;6980;-63
2023/11/27 04:17:25;;;;;;;;;;;;;;;25.44;39.72;93583.63;5005142;28;9123;-63
2023/11/27 04:19:56;;;;;;;;;;;;;;;25.41;39.51;93579.13;4913677;29;7153;-63
2023/11/27 04:22:24;;;;;;;;;;;;;;;25.43;39.19;93582.13;4910246;29;7105;-63
2023/11/27 04:24:51;;;;;;;;;;;;;;;25.41;39.04;93579.13;4909364;29;7300;-63
2023/11/27 04:27:19;;;;;;;;;;;;;;;25.45;39.59;93578.84;4912545;29;7361;-63
2023/11/27 04:29:59;;;;;;;;;;;;;;;25.43;39.14;93577.38;4898677;29;7239;-63
2023/11/27 04:32:56;;;;;;;;;;;;;;;25.41;39.25;93579.88;4893825;29;9332;-63
2023/11/27 04:36:11;;;;;;;;;;;;;;;25.42;39.97;93567.59;4916248;29;6982;-63
2023/11/27 04:38:37;;;;;;;;;;;;;;;25.40;39.19;93566.66;4912423;29;7209;-63
2023/11/27 04:41:24;;;;;;;;;;;;;;;25.43;39.36;93571.09;4895391;29;9233;-63
2023/11/27 04:44:10;;;;;;;;;;;;;;;25.42;39.42;93564.84;4904768;29;7205;-64
2023/11/27 04:46:41;;;;;;;;;;;;;;;25.39;39.83;93554.13;4946917;28;7226;-63
2023/11/27 04:49:17;;;;;;;;;;;;;;;25.39;39.55;93551.38;4975664;28;7104;-63
2023/11/27 04:52:00;;;;;;;;;;;;;;;25.42;39.47;93562.09;4959409;28;8796;-63
2023/11/27 04:54:38;;;;;;;;;;;;;;;25.38;39.78;93549.91;4966646;28;7266;-63
2023/11/27 04:57:36;;;;;;;;;;;;;;;25.41;38.99;93557.09;5052012;28;7252;-63
2023/11/27 05:00:06;;;;;;;;;;;;;;;25.39;39.06;93545.88;5054481;28;7406;-63
2023/11/27 05:02:33;;;;;;;;;;;;;;;25.42;39.69;93542.09;5056453;28;7062;-62
2023/11/27 05:05:11;;;;;;;;;;;;;;;25.45;39.49;93545.81;5076751;28;9379;-62
2023/11/27 05:08:11;;;;;;;;;;;;;;;25.48;39.49;93550.25;5046574;28;8407;-62
2023/11/27 05:10:39;;;;;;;;;;;;;;;25.47;39.61;93537.78;5055486;28;7439;-62
2023/11/27 05:13:37;;;;;;;;;;;;;;;25.43;40.04;93538.81;5072696;28;7031;-62
2023/11/27 05:16:36;;;;;;;;;;;;;;;25.42;39.83;93537.31;5050217;28;7104;-61
2023/11/27 05:19:08;;;;;;;;;;;;;;;25.46;39.12;93539.03;5042900;28;7237;-62
2023/11/27 05:21:37;;;;;;;;;;;;;;;25.47;39.30;93538.50;5057454;28;8082;-62
2023/11/27 05:24:26;;;;;;;;;;;;;;;25.48;39.41;93531.72;5057959;28;7333;-62
2023/11/27 05:27:18;;;;;;;;;;;;;;;25.47;39.26;93532.97;5049942;28;7056;-62
2023/11/27 05:30:17;;;;;;;;;;;;;;;25.49;39.90;93533.19;5061130;28;6984;-62
2023/11/27 05:33:01;;;;;;;;;;;;;;;25.48;38.93;93537.22;5023107;28;7259;-62
2023/11/27 05:35:28;;;;;;;;;;;;;;;25.47;38.95;93535.72;5021765;28;8235;-62
2023/11/27 05:38:02;;;;;;;;;;;;;;;25.46;39.09;93531.50;5026818;28;7365;-62
2023/11/27 05:40:47;;;;;;;;;;;;;;;25.47;39.25;93532.25;5021695;28;7209;-62
2023/11/27 05:43:37;;;;;;;;;;;;;;;25.47;39.10;93538.50;5016195;28;7244;-62
2023/11/27 05:46:05;;;;;;;;;;;;;;;25.47;39.51;93540.53;5002309;28;9140;-61
2023/11/27 05:48:41;;;;;;;;;;;;;;;25.50;39.12;93531.94;5020498;28;7016;-62
2023/11/27 05:51:27;;;;;;;;;;;;;;;25.54;38.71;93534.34;5011138;28;7247;-62
2023/11/27 05:53:58;;;;;;;;;;;;;;;25.51;39.24;93522.41;5000334;28;7248;-62
2023/11/27 05:56:56;;;;;;;;;;;;;;;25.52;39.22;93523.88;5003536;28;7293;-62
2023/11/27 05:59:35;;;;;;;;;;;;;;;25.56;39.04;93535.31;4933409;28;7670;-62
2023/11/27 06:02:01;;;;;;;;;;;;;;;25.56;39.78;93524.28;4941885;28;7403;-61
2023/11/27 06:04:48;;;;;;;;;;;;;;;25.61;39.80;93523.44;4933603;29;7312;-62
2023/11/27 06:07:36;;;;;;;;;;;;;;;25.61;39.80;93520.69;4927038;28;8804;-61
2023/11/27 06:10:07;;;;;;;;;;;;;;;25.61;39.29;93519.94;4953125;28;7235;-62
2023/11/27 06:12:35;;;;;;;;;;;;;;;25.62;39.56;93516.66;4967740;28;7096;-55
2023/11/27 06:15:03;;;;;;;;;;;;;;;25.68;39.43;93522.06;4973170;28;7496;-55
2023/11/27 06:18:22;;;;;;;;;;;;;;;25.66;39.09;93519.84;4973296;28;9126;-55
2023/11/27 06:20:48;;;;;;;;;;;;;;;25.65;39.29;93517.63;4992177;28;8014;-55
2023/11/27 06:23:36;;;;;;;;;;;;;;;25.63;39.65;93511.91;4956034;28;7399;-55
2023/11/27 06:26:40;;;;;;;;;;;;;;;25.60;39.26;93513.69;4957382;28;7077;-55
2023/11/27 06:29:32;;;;;;;;;;;;;;;25.63;39.02;93523.66;4934575;29;7338;-55
2023/11/27 06:32:20;;;;;;;;;;;;;;;25.64;39.82;93519.66;4910982;29;7290;-55
2023/11/27 06:34:59;;;;;;;;;;;;;;;25.67;38.93;93517.81;4916098;28;8004;-55
2023/11/27 06:38:13;;;;;;;;;;;;;;;25.64;38.45;93510.63;4989867;28;7781;-55
2023/11/27 06:41:25;;;;;;;;;;;;;;;25.63;38.17;93517.41;4915740;29;7250;-55
2023/11/27 06:44:00;;;;;;;;;;;;;;;25.67;38.98;93513.06;4864391;29;9232;-55
2023/11/27 06:47:16;;;;;;;;;;;;;;;25.68;38.94;93511.78;4864886;29;7234;-55
2023/11/27 06:50:01;;;;;;;;;;;;;;;25.68;38.56;93511.06;4859479;29;7006;-56
2023/11/27 06:52:41;;;;;;;;;;;;;;;25.71;38.08;93507.97;4840283;29;7423;-55
2023/11/27 06:55:20;;;;;;;;;;;;;;;25.72;38.04;93497.69;4860601;29;9489;-55
2023/11/27 06:58:22;;;;;;;;;;;;;;;25.71;38.56;93499.69;4859258;29;7146;-55
2023/11/27 07:01:04;;;;;;;;;;;;;;;25.68;38.15;93498.03;4861434;29;7523;-55
2023/11/27 07:03:51;;;;;;;;;;;;;;;25.70;38.64;93498.22;4849837;29;7492;-55
2023/11/27 07:06:18;;;;;;;;;;;;;;;25.69;38.27;93505.00;4848827;29;7207;-55
2023/11/27 07:08:44;;;;;;;;;;;;;;;25.70;38.32;93503.00;4891696;28;7121;-55
2023/11/27 07:14:35;;;;;;;;;;;;;;;25.65;38.84;93492.81;4927223;29;7372;-55
2023/11/27 07:17:25;;;;;;;;;;;;;;;25.68;38.07;93492.53;4962599;28;7224;-54
2023/11/27 07:19:52;;;;;;;;;;;;;;;25.67;38.90;93501.28;5016856;28;7537;-55
2023/11/27 07:22:19;;;;;;;;;;;;;;;25.70;38.72;93495.47;5057622;28;8791;-61
2023/11/27 07:24:46;;;;;;;;;;;;;;;25.71;39.33;93491.44;5070019;28;7138;-60
2023/11/27 07:27:12;;;;;;;;;;;;;;;25.66;39.15;93475.78;5070611;28;7051;-60
2023/11/27 07:29:40;;;;;;;;;;;;;;;25.65;38.96;93482.56;5058570;28;7460;-61
2023/11/27 07:32:06;;;;;;;;;;;;;;;25.61;39.43;93470.38;5056339;28;8875;-60
2023/11/27 07:34:39;;;;;;;;;;;;;;;25.61;38.86;93460.13;5056702;28;7059;-61
2023/11/27 07:37:06;;;;;;;;;;;;;;;25.62;39.30;93464.34;5064913;28;8849;-61
2023/11/27 07:39:37;;;;;;;;;;;;;;;25.63;39.40;93451.31;5072119;28;7232;-60
2023/11/27 07:42:04;;;;;;;;;;;;;;;25.62;39.07;93445.06;5073688;28;7595;-60
2023/11/27 07:44:43;;;;;;;;;;;;;;;25.61;38.86;93429.06;5073184;28;8943;-60
2023/11/27 07:47:35;;;;;;;;;;;;;;;25.65;38.94;93454.28;5071235;28;6984;-61
2023/11/27 07:50:06;;;;;;;;;;;;;;;25.64;38.37;93475.59;5044720;28;7066;-60
2023/11/27 07:52:32;;;;;;;;;;;;;;;25.64;39.56;93459.06;5064023;28;6974;-60
2023/11/27 07:54:58;;;;;;;;;;;;;;;25.65;38.91;93432.25;5072174;28;7326;-61
2023/11/27 07:57:25;;;;;;;;;;;;;;;25.65;38.45;93449.50;5048367;28;8894;-60
2023/11/27 07:59:51;;;;;;;;;;;;;;;25.64;39.10;93442.53;5065468;28;8856;-61
2023/11/27 08:02:18;;;;;;;;;;;;;;;25.65;38.14;93443.25;5047863;28;8986;-60
2023/11/27 08:04:43;;;;;;;;;;;;;;;25.66;38.79;93439.25;5060156;28;7222;-60
2023/11/27 08:07:10;;;;;;;;;;;;;;;25.64;38.86;93431.53;5048656;28;7814;-60
2023/11/27 08:09:36;;;;;;;;;;;;;;;25.62;38.78;93422.31;5054945;28;7424;-60
2023/11/27 08:12:12;;;;;;;;;;;;;;;25.64;38.37;93439.03;5064983;28;7427;-60
2023/11/27 08:14:41;;;;;;;;;;;;;;;25.62;38.78;93450.56;5059555;28;9094;-61
2023/11/27 08:17:07;;;;;;;;;;;;;;;25.66;38.74;93444.75;5050491;28;6990;-61
2023/11/27 08:19:40;;;;;;;;;;;;;;;25.64;38.57;93441.78;5057012;28;9445;-61
2023/11/27 08:22:11;;;;;;;;;;;;;;;25.62;38.93;93439.56;5057717;28;7426;-62
2023/11/27 08:24:47;;;;;;;;;;;;;;;25.62;38.20;93445.06;5078185;28;6992;-61
2023/11/27 08:27:15;;;;;;;;;;;;;;;25.64;38.55;93436.28;5055841;28;7096;-61
2023/11/27 08:30:13;;;;;;;;;;;;;;;25.64;38.19;93409.50;5073539;28;7308;-61
2023/11/27 08:33:09;;;;;;;;;;;;;;;25.66;38.74;93406.94;5012661;28;8338;-55
2023/11/27 08:35:53;;;;;;;;;;;;;;;25.68;38.48;93431.94;4961434;28;7179;-55
2023/11/27 08:38:38;;;;;;;;;;;;;;;25.70;38.48;93429.38;4954443;28;7242;-56
2023/11/27 08:41:13;;;;;;;;;;;;;;;25.74;38.20;93416.00;4934717;28;6873;-55
2023/11/27 08:43:57;;;;;;;;;;;;;;;25.75;37.89;93411.97;4946870;28;7399;-55
2023/11/27 08:46:51;;;;;;;;;;;;;;;25.75;37.73;93409.22;4956481;28;7070;-55
2023/11/27 08:49:17;;;;;;;;;;;;;;;25.73;38.16;93406.25;4965377;28;7192;-55
2023/11/27 08:52:01;;;;;;;;;;;;;;;25.73;38.06;93402.78;4955536;28;9366;-55
2023/11/27 08:54:32;;;;;;;;;;;;;;;25.75;37.87;93397.47;4949031;28;8702;-55
2023/11/27 08:57:02;;;;;;;;;;;;;;;25.76;37.71;93404.47;4943877;28;7083;-55
2023/11/27 08:59:28;;;;;;;;;;;;;;;25.73;38.80;93408.28;4942365;28;9114;-56
2023/11/27 09:01:55;;;;;;;;;;;;;;;25.70;38.75;93396.34;4953754;28;9481;-55
2023/11/27 09:04:39;;;;;;;;;;;;;;;25.66;38.79;93390.41;4942789;28;7000;-54
2023/11/27 09:07:14;;;;;;;;;;;;;;;25.69;38.40;93399.59;4962844;28;7106;-55
2023/11/27 09:09:54;;;;;;;;;;;;;;;25.72;38.24;93380.00;4974562;28;7219;-56
2023/11/27 09:12:20;;;;;;;;;;;;;;;25.72;38.18;93391.03;5044987;28;9152;-55
2023/11/27 09:14:53;;;;;;;;;;;;;;;25.71;38.71;93384.03;5060003;28;9030;-55
2023/11/27 09:17:29;;;;;;;;;;;;;;;25.71;38.64;93373.00;5071229;28;7274;-55
2023/11/27 09:19:56;;;;;;;;;;;;;;;25.69;38.38;93380.31;5055043;28;7335;-55
2023/11/27 09:22:29;;;;;;;;;;;;;;;25.68;38.59;93374.09;5060694;28;6976;-56
2023/11/27 09:25:02;;;;;;;;;;;;;;;25.71;38.28;93370.25;5058649;28;7169;-55
2023/11/27 09:27:38;;;;;;;;;;;;;;;25.73;38.68;93375.25;5055173;28;7010;-55
2023/11/27 09:30:20;;;;;;;;;;;;;;;25.71;37.99;93370.25;5061732;28;9040;-55
2023/11/27 09:32:53;;;;;;;;;;;;;;;25.72;38.25;93360.72;5053457;28;7277;-56
2023/11/27 09:35:50;;;;;;;;;;;;;;;25.72;38.38;93354.47;5062838;28;7556;-55
2023/11/27 09:38:17;;;;;;;;;;;;;;;25.74;38.36;93357.44;5012016;28;7061;-55
2023/11/27 09:41:07;;;;;;;;;;;;;;;25.74;38.68;93347.16;5019685;28;7862;-55
2023/11/27 09:43:37;;;;;;;;;;;;;;;25.70;38.10;93348.78;5019180;28;6970;-56
2023/11/27 09:46:46;;;;;;;;;;;;;;;25.72;38.75;93341.44;5022304;28;6972;-56
2023/11/27 09:49:24;;;;;;;;;;;;;;;25.76;38.75;93338.34;5016135;28;7460;-56
2023/11/27 09:52:20;;;;;;;;;;;;;;;25.77;38.66;93337.84;5032161;28;7026;-56
2023/11/27 09:55:17;;;;;;;;;;;;;;;25.76;39.05;93338.34;5021916;28;7300;-56
2023/11/27 09:57:59;;;;;;;;;;;;;;;25.77;38.93;93329.56;5004559;28;7315;-56
2023/11/27 10:01:10;;;;;;;;;;;;;;;25.75;38.39;93325.88;5014121;28;7216;-56
2023/11/27 10:03:39;;;;;;;;;;;;;;;25.75;39.03;93315.56;5023558;28;7338;-57
2023/11/27 10:06:41;;;;;;;;;;;;;;;25.76;38.99;93311.56;5020097;28;8442;-57
2023/11/27 10:09:45;;;;;;;;;;;;;;;25.79;38.26;93312.50;4964336;28;9181;-56
2023/11/27 10:12:46;;;;;;;;;;;;;;;25.81;38.63;93296.91;4967640;28;6986;-57
2023/11/27 10:15:15;;;;;;;;;;;;;;;25.81;38.63;93288.66;4943985;28;7399;-56
2023/11/27 10:18:00;;;;;;;;;;;;;;;25.80;38.16;93283.66;4952143;28;9172;-56
2023/11/27 10:24:22;;;;;;;;;;;;;;;25.78;38.33;93270.44;4878998;29;7031;-57
2023/11/27 10:27:08;;;;;;;;;;;;;;;25.76;38.69;93261.97;4879089;29;7238;-56
2023/11/27 10:29:35;;;;;;;;;;;;;;;25.78;38.95;93270.44;4879326;29;8924;-56
2023/11/27 10:32:09;;;;;;;;;;;;;;;25.79;38.69;93249.91;4871338;29;6986;-56
2023/11/27 10:34:47;;;;;;;;;;;;;;;25.78;38.45;93242.91;4870373;29;9206;-56
2023/11/27 10:37:13;;;;;;;;;;;;;;;25.81;39.95;93247.34;4878781;29;9073;-57
2023/11/27 10:40:17;;;;;;;;;;;;;;;25.86;39.12;93237.47;4869657;29;6974;-57
2023/11/27 10:43:27;;;;;;;;;;;;;;;25.82;39.42;93218.50;4879098;29;7143;-56
2023/11/27 10:45:57;;;;;;;;;;;;;;;25.83;39.05;93205.47;4908337;29;7122;-57
2023/11/27 10:48:35;;;;;;;;;;;;;;;25.82;39.27;93203.97;4924800;28;7207;-56
2023/11/27 10:51:16;;;;;;;;;;;;;;;25.81;38.88;93192.25;4993213;28;9223;-57
2023/11/27 10:54:06;;;;;;;;;;;;;;;25.82;38.61;93174.44;4975331;28;7003;-63
2023/11/27 10:57:07;;;;;;;;;;;;;;;25.83;39.50;93164.91;4992534;28;7080;-63
2023/11/27 10:59:44;;;;;;;;;;;;;;;25.82;38.81;93166.16;4924753;29;9156;-62
2023/11/27 11:02:13;;;;;;;;;;;;;;;25.83;38.90;93148.38;5012430;28;8973;-62
2023/11/27 11:05:26;;;;;;;;;;;;;;;25.84;39.21;93140.81;5014694;28;9324;-63
2023/11/27 11:07:59;;;;;;;;;;;;;;;25.84;39.81;93125.03;4942041;28;9105;-63
2023/11/27 11:10:31;;;;;;;;;;;;;;;25.85;38.55;93123.78;4953765;28;8807;-63
2023/11/27 11:13:18;;;;;;;;;;;;;;;25.86;39.02;93119.72;4955340;28;7234;-63
2023/11/27 11:16:22;;;;;;;;;;;;;;;25.86;39.16;93110.75;4949161;28;7277;-63
2023/11/27 11:19:46;;;;;;;;;;;;;;;25.82;38.66;93108.31;4949532;28;9083;-63
2023/11/27 11:23:06;;;;;;;;;;;;;;;25.81;38.78;93097.84;4946674;28;7248;-63
2023/11/27 11:26:21;;;;;;;;;;;;;;;25.79;38.79;93089.41;4945747;28;7520;-63
2023/11/27 11:29:34;;;;;;;;;;;;;;;25.80;38.92;93085.34;4953957;28;7236;-63
2023/11/27 11:32:30;;;;;;;;;;;;;;;25.79;39.06;93076.38;4930415;28;9042;-63
2023/11/27 11:35:18;;;;;;;;;;;;;;;25.76;39.06;93073.94;4971666;28;7459;-63
2023/11/27 11:38:25;;;;;;;;;;;;;;;25.78;38.80;93074.16;5008985;28;8899;-63
2023/11/27 11:41:09;;;;;;;;;;;;;;;25.78;38.83;93072.13;4956372;28;8636;-63
2023/11/27 11:43:52;;;;;;;;;;;;;;;25.76;39.00;93051.91;4962107;28;7205;-63
2023/11/27 11:46:19;;;;;;;;;;;;;;;25.80;39.13;93041.28;5037177;28;7587;-63
2023/11/27 11:48:55;;;;;;;;;;;;;;;25.83;38.46;93034.69;5017660;28;7325;-63
2023/11/27 11:55:33;;;;;;;;;;;;;;;25.83;38.88;93015.41;5025495;28;6781;-63
2023/11/27 11:58:30;;;;;;;;;;;;;;;25.85;38.62;93010.09;5014376;28;7538;-63
2023/11/27 12:01:32;;;;;;;;;;;;;;;25.83;38.50;93007.91;4956926;28;7348;-63
2023/11/27 12:04:12;;;;;;;;;;;;;;;25.80;39.43;93014.47;4944088;28;7074;-56
2023/11/27 12:06:57;;;;;;;;;;;;;;;25.86;39.12;93000.56;4933370;29;7062;-56
2023/11/27 12:09:41;;;;;;;;;;;;;;;25.89;39.55;92996.69;4934597;28;8704;-55
2023/11/27 12:12:14;;;;;;;;;;;;;;;25.88;39.17;92992.50;4946007;28;7291;-55
2023/11/27 12:14:43;;;;;;;;;;;;;;;25.88;39.26;92987.69;4941749;29;7353;-56
2023/11/27 12:17:29;;;;;;;;;;;;;;;25.86;38.85;92990.25;4934337;29;8050;-55
2023/11/27 12:20:02;;;;;;;;;;;;;;;25.87;38.78;92991.00;4928626;29;8221;-55
2023/11/27 12:22:50;;;;;;;;;;;;;;;25.86;39.12;92973.72;4935962;29;7448;-55
2023/11/27 12:25:36;;;;;;;;;;;;;;;25.87;38.78;92971.72;4943511;29;8780;-55
2023/11/27 12:28:19;;;;;;;;;;;;;;;25.88;38.56;92964.94;4938436;29;9153;-55
2023/11/27 12:30:51;;;;;;;;;;;;;;;25.88;39.73;92953.94;4932439;29;7238;-55
2023/11/27 12:33:33;;;;;;;;;;;;;;;25.87;39.24;92942.16;4948688;29;7213;-55
2023/11/27 12:36:14;;;;;;;;;;;;;;;25.86;38.63;92940.69;4935769;29;6981;-55
2023/11/27 12:38:53;;;;;;;;;;;;;;;25.85;38.54;92933.72;4983653;28;7245;-55
2023/11/27 12:41:32;;;;;;;;;;;;;;;25.87;39.02;92928.41;5049227;28;7545;-55
2023/11/27 12:44:08;;;;;;;;;;;;;;;25.87;38.93;92930.41;5048909;28;7315;-55
2023/11/27 12:46:48;;;;;;;;;;;;;;;25.87;38.46;92924.91;5055850;28;7100;-55
2023/11/27 12:49:33;;;;;;;;;;;;;;;25.83;38.32;92911.50;5071135;28;8808;-55
2023/11/27 12:52:10;;;;;;;;;;;;;;;25.85;38.42;92917.19;5058613;28;7251;-55
2023/11/27 12:54:57;;;;;;;;;;;;;;;25.87;38.61;92909.13;5057638;28;7102;-55
2023/11/27 12:58:11;;;;;;;;;;;;;;;25.89;38.61;92900.28;5073433;28;7814;-55
2023/11/27 13:00:45;;;;;;;;;;;;;;;25.90;39.30;92902.50;5000894;28;8195;-55
2023/11/27 13:03:21;;;;;;;;;;;;;;;25.90;38.52;92902.50;4982791;28;7005;-55
2023/11/27 13:06:04;;;;;;;;;;;;;;;25.90;39.05;92890.75;4991756;28;8779;-55
2023/11/27 13:08:49;;;;;;;;;;;;;;;25.90;38.80;92899.72;5012784;28;9128;-55
2023/11/27 13:11:32;;;;;;;;;;;;;;;25.90;38.59;92891.47;4996720;28;7261;-55
2023/11/27 13:14:07;;;;;;;;;;;;;;;25.87;38.38;92887.06;4999311;28;9121;-55
2023/11/27 13:17:00;;;;;;;;;;;;;;;25.87;39.09;92870.56;4996749;28;7261;-55
2023/11/27 13:19:26;;;;;;;;;;;;;;;25.87;39.04;92867.78;5006742;28;7227;-55
2023/11/27 13:21:58;;;;;;;;;;;;;;;25.87;38.86;92859.53;5012860;28;8768;-61
2023/11/27 13:24:29;;;;;;;;;;;;;;;25.87;39.03;92853.28;5007798;28;8482;-61
2023/11/27 13:26:55;;;;;;;;;;;;;;;25.87;38.90;92858.78;4992962;28;7143;-61
2023/11/27 13:29:25;;;;;;;;;;;;;;;25.86;39.28;92852.53;5018780;28;7448;-60
2023/11/27 13:31:53;;;;;;;;;;;;;;;25.87;38.33;92842.25;5005176;28;7508;-61
2023/11/27 13:34:34;;;;;;;;;;;;;;;25.86;38.92;92835.31;5007796;28;7245;-61
2023/11/27 13:37:07;;;;;;;;;;;;;;;25.84;38.94;92822.06;5026520;28;7122;-61
2023/11/27 13:40:10;;;;;;;;;;;;;;;25.86;38.26;92819.47;5066911;28;6986;-61
2023/11/27 13:42:44;;;;;;;;;;;;;;;25.87;39.28;92814.72;5011332;28;7320;-61
2023/11/27 13:45:25;;;;;;;;;;;;;;;25.82;38.51;92802.59;5010392;28;8832;-61
2023/11/27 13:48:19;;;;;;;;;;;;;;;25.86;38.89;92794.69;5004906;28;7850;-61
2023/11/27 13:50:58;;;;;;;;;;;;;;;25.86;38.61;92780.94;4997443;28;7384;-60
2023/11/27 13:53:26;;;;;;;;;;;;;;;25.84;38.30;92783.50;5013457;28;7203;-60
2023/11/27 13:56:30;;;;;;;;;;;;;;;25.82;38.63;92782.56;5009846;28;8781;-60
2023/11/27 13:58:58;;;;;;;;;;;;;;;25.83;38.69;92775.78;5011098;28;9991;-60
2023/11/27 14:01:44;;;;;;;;;;;;;;;25.86;38.38;92772.66;5012576;28;7251;-60
2023/11/27 14:04:28;;;;;;;;;;;;;;;25.85;38.65;92768.47;5001501;28;7235;-60
2023/11/27 14:07:27;;;;;;;;;;;;;;;25.88;38.90;92763.88;5013355;28;7221;-61
2023/11/27 14:10:31;;;;;;;;;;;;;;;25.86;39.26;92758.88;4997846;28;7281;-60
2023/11/27 14:13:18;;;;;;;;;;;;;;;25.84;39.00;92746.94;5005900;28;6977;-61
2023/11/27 14:15:47;;;;;;;;;;;;;;;25.84;39.09;92749.72;4996782;28;9043;-60
2023/11/27 14:27:39;;;;;;;;;;;;;;;25.84;38.76;92717.41;4969851;28;7237;-61
2023/11/27 14:30:35;;;;;;;;;;;;;;;25.85;38.63;92718.88;4980190;28;7271;-61
2023/11/27 14:33:09;;;;;;;;;;;;;;;25.84;39.05;92727.66;4964736;28;6992;-55
2023/11/27 14:36:30;;;;;;;;;;;;;;;25.86;38.89;92720.31;4984289;28;7039;-55
2023/11/27 14:39:19;;;;;;;;;;;;;;;25.81;38.63;92702.00;4884491;29;7188;-55
2023/11/27 14:42:02;;;;;;;;;;;;;;;25.84;38.68;92700.88;4873009;29;7244;-55
2023/11/27 14:44:52;;;;;;;;;;;;;;;25.86;39.26;92695.53;4897433;29;8771;-55